»·PEaware :: N102MR KGEG-KBFI

N102MR :: KGEG-KBFI

FLIGHT INFORMATION

Flight Status: Arrived
Operator: Privately registered:
United States
More flights under this callsign
Pilot: Michael R. (16974)
Aircraft: CESSNA 172 SKYHAWK
(C172)
More flights by this aircraft type
Origin: KGEG Spokane Intl
United States
Destination: KBFI Boeing Field/King Co Intl
United States
More flights between these airports :: More routes between these airports
Route: +
File this flight plan on PilotEdge
Remarks:
Altitude:
(Current/Filed)
10,000ft
Speed:
(Current/Filed)
115kts
Departed: 26-Oct-17 07:18 PM
Arrived: 26-Oct-17 09:15 PM
Distance/Time
Traveled:
814nm/1:57
Distance/Time
To Go:
Arrived

Flight Plot

Page will automatically refresh every two minutes.

Flight plan parsing failed; only flown route is shown


Map Options




Map Legend


Flown Route
Filed Route
Departure Airport
Arrival Airport
Navaid (VOR, NDB)
Fix

Horizontal Profiles

Position Reports

Time Latitude Longitude Heading Altitude Ground
Speed
26-Oct-17 19:10 47.623168 -117.524499 269 2352ft 0kts
26-Oct-17 19:11 47.623168 -117.524499 269 2352ft 0kts
26-Oct-17 19:12 47.623168 -117.524499 269 2352ft 0kts
26-Oct-17 19:13 47.623168 -117.524499 269 2352ft 0kts
26-Oct-17 19:14 47.623168 -117.524499 269 2352ft 0kts
26-Oct-17 19:15 47.623168 -117.524499 269 2352ft 0kts
26-Oct-17 19:16 47.623168 -117.524499 269 2352ft 0kts
26-Oct-17 19:17 47.623168 -117.524499 269 2352ft 0kts
26-Oct-17 19:18 47.623405 -117.525325 334 2353ft 11kts
26-Oct-17 19:19 47.626580 -117.521789 44 2343ft 24kts
26-Oct-17 19:20 47.630621 -117.517605 306 2323ft 0kts
26-Oct-17 19:21 47.630621 -117.517605 306 2323ft 0kts
26-Oct-17 19:22 47.630621 -117.517605 306 2323ft 0kts
26-Oct-17 19:23 47.628817 -117.521889 225 2339ft 65kts
26-Oct-17 19:24 47.612272 -117.550651 232 3003ft 107kts
26-Oct-17 19:25 47.592660 -117.586432 231 3645ft 111kts
26-Oct-17 19:26 47.572712 -117.620980 232 4337ft 110kts
26-Oct-17 19:27 47.561725 -117.661006 258 5025ft 104kts
26-Oct-17 19:28 47.553429 -117.701878 259 5720ft 102kts
26-Oct-17 19:29 47.545373 -117.741674 260 6413ft 101kts
26-Oct-17 19:30 47.537221 -117.781908 261 7112ft 102kts
26-Oct-17 19:31 47.529125 -117.821788 262 7806ft 100kts
26-Oct-17 19:32 47.521221 -117.860649 263 8499ft 97kts
26-Oct-17 19:33 47.513182 -117.898204 265 9164ft 95kts
26-Oct-17 19:34 47.505654 -117.936431 265 9766ft 97kts
26-Oct-17 19:35 47.497746 -117.974192 266 10361ft 95kts
26-Oct-17 19:36 47.490394 -118.011021 265 10955ft 92kts
26-Oct-17 19:37 47.483153 -118.046327 268 11546ft 87kts
26-Oct-17 19:38 47.474616 -118.089862 261 10853ft 153kts
26-Oct-17 19:39 47.461781 -118.151557 260 9510ft 145kts
26-Oct-17 19:40 47.450931 -118.203671 261 9497ft 126kts
26-Oct-17 19:41 47.440799 -118.252637 262 9500ft 124kts
26-Oct-17 19:42 47.430747 -118.301055 262 9507ft 122kts
26-Oct-17 19:43 47.420791 -118.347080 263 9507ft 121kts
26-Oct-17 19:44 47.411716 -118.394791 264 9508ft 120kts
26-Oct-17 19:45 47.402601 -118.441604 263 9506ft 114kts
26-Oct-17 19:46 47.393591 -118.485559 263 9508ft 111kts
26-Oct-17 19:47 47.384543 -118.528961 263 9508ft 110kts
26-Oct-17 19:48 47.375436 -118.572329 263 9508ft 110kts
26-Oct-17 19:49 47.366243 -118.615981 262 9509ft 114kts
26-Oct-17 19:50 47.357183 -118.658829 261 9509ft 116kts
26-Oct-17 19:51 47.347455 -118.704723 261 9509ft 117kts
26-Oct-17 19:52 47.337824 -118.750078 261 9509ft 117kts
26-Oct-17 19:53 47.328057 -118.795977 261 9509ft 117kts
26-Oct-17 19:54 47.318259 -118.841948 261 9509ft 117kts
26-Oct-17 19:55 47.308410 -118.888037 261 9509ft 118kts
26-Oct-17 19:56 47.298494 -118.934334 260 9509ft 118kts
26-Oct-17 19:57 47.288559 -118.980606 260 9509ft 119kts
26-Oct-17 19:58 47.279037 -119.024861 260 9509ft 119kts
26-Oct-17 19:59 47.269001 -119.071373 260 9509ft 119kts
26-Oct-17 20:00 47.258911 -119.118036 260 9509ft 119kts
26-Oct-17 20:01 47.248778 -119.164809 260 9509ft 119kts
26-Oct-17 20:02 47.238657 -119.211421 260 9509ft 119kts
26-Oct-17 20:03 47.228525 -119.257982 260 9509ft 119kts
26-Oct-17 20:04 47.218331 -119.304719 260 9509ft 119kts
26-Oct-17 20:05 47.210113 -119.351654 265 9509ft 118kts
26-Oct-17 20:06 47.202664 -119.398476 265 9509ft 117kts
26-Oct-17 20:07 47.195208 -119.445325 265 9509ft 117kts
26-Oct-17 20:08 47.187758 -119.492033 265 9509ft 117kts
26-Oct-17 20:09 47.180302 -119.538666 265 9509ft 117kts
26-Oct-17 20:10 47.172453 -119.585157 266 9509ft 116kts
26-Oct-17 20:11 47.165238 -119.631747 265 9509ft 117kts
26-Oct-17 20:12 47.157974 -119.677276 264 9509ft 116kts
26-Oct-17 20:13 47.150587 -119.723091 264 9509ft 115kts
26-Oct-17 20:14 47.143212 -119.768565 265 9518ft 114kts
26-Oct-17 20:15 47.135817 -119.814096 265 9520ft 114kts
26-Oct-17 20:16 47.129167 -119.854894 264 9522ft 115kts
26-Oct-17 20:17 47.121690 -119.900636 264 9524ft 115kts
26-Oct-17 20:18 47.114171 -119.946502 264 9525ft 115kts
26-Oct-17 20:19 47.106614 -119.992472 264 9527ft 116kts
26-Oct-17 20:20 47.099025 -120.038513 264 9527ft 116kts
26-Oct-17 20:21 47.091374 -120.084803 264 9526ft 116kts
26-Oct-17 20:22 47.083730 -120.130923 264 9524ft 116kts
26-Oct-17 20:23 47.076141 -120.176594 264 9523ft 116kts
26-Oct-17 20:24 47.068473 -120.222624 264 9521ft 116kts
26-Oct-17 20:25 47.061184 -120.266261 264 9520ft 116kts
26-Oct-17 20:26 47.053461 -120.312378 264 9519ft 116kts
26-Oct-17 20:27 47.045703 -120.358585 264 9519ft 116kts
26-Oct-17 20:28 47.037920 -120.404829 264 9519ft 116kts
26-Oct-17 20:29 47.030157 -120.450842 264 9519ft 116kts
26-Oct-17 20:30 47.037239 -120.493381 296 9519ft 107kts
26-Oct-17 20:31 47.046727 -120.534756 296 9519ft 107kts
26-Oct-17 20:32 47.056273 -120.576254 296 9519ft 107kts
26-Oct-17 20:33 47.065802 -120.617693 296 9519ft 107kts
26-Oct-17 20:34 47.075034 -120.657901 296 9519ft 107kts
26-Oct-17 20:35 47.082728 -120.691489 296 9592ft 105kts
26-Oct-17 20:36 47.093752 -120.739628 296 9592ft 107kts
26-Oct-17 20:37 47.101631 -120.774129 296 9592ft 107kts
26-Oct-17 20:38 47.111112 -120.815713 296 9592ft 107kts
26-Oct-17 20:39 47.122122 -120.864111 296 9592ft 107kts
26-Oct-17 20:40 47.131570 -120.905727 296 9592ft 107kts
26-Oct-17 20:41 47.139410 -120.940332 296 9600ft 107kts
26-Oct-17 20:42 47.148705 -120.981658 296 9607ft 107kts
26-Oct-17 20:43 47.158134 -121.023361 295 9615ft 108kts
26-Oct-17 20:44 47.167659 -121.065603 294 9622ft 109kts
26-Oct-17 20:45 47.177100 -121.107573 293 9628ft 110kts
26-Oct-17 20:46 47.186808 -121.150821 293 9633ft 111kts
26-Oct-17 20:47 47.196519 -121.194179 292 9637ft 112kts
26-Oct-17 20:48 47.206300 -121.238023 292 9641ft 112kts
26-Oct-17 20:49 47.216205 -121.282420 292 9568ft 115kts
26-Oct-17 20:50 47.226078 -121.326843 292 9557ft 113kts
26-Oct-17 20:51 47.235829 -121.370728 292 9544ft 112kts
26-Oct-17 20:52 47.245557 -121.414602 292 9531ft 112kts
26-Oct-17 20:53 47.255230 -121.458313 292 9521ft 112kts
26-Oct-17 20:54 47.264823 -121.501762 293 9520ft 110kts
26-Oct-17 20:55 47.274160 -121.543947 293 8967ft 104kts
26-Oct-17 20:56 47.281954 -121.582742 282 8162ft 98kts
26-Oct-17 20:57 47.285339 -121.622620 287 7239ft 99kts
26-Oct-17 20:58 47.292403 -121.663636 291 5996ft 115kts
26-Oct-17 20:59 47.301809 -121.705521 293 5260ft 87kts
26-Oct-17 21:00 47.311941 -121.739378 298 5194ft 96kts
26-Oct-17 21:01 47.324998 -121.774568 303 5128ft 97kts
26-Oct-17 21:02 47.338582 -121.810113 294 4930ft 107kts
26-Oct-17 21:03 47.347403 -121.853032 273 4576ft 115kts
26-Oct-17 21:04 47.350252 -121.898737 286 3760ft 120kts
26-Oct-17 21:05 47.358950 -121.942541 290 3233ft 91kts
26-Oct-17 21:06 47.366242 -121.976551 290 2900ft 97kts
26-Oct-17 21:07 47.374417 -122.014537 290 2370ft 101kts
26-Oct-17 21:08 47.382618 -122.052776 290 2018ft 84kts
26-Oct-17 21:09 47.389072 -122.082898 290 1998ft 73kts
26-Oct-17 21:10 47.395181 -122.111403 290 1997ft 72kts
26-Oct-17 21:11 47.401424 -122.140546 290 1937ft 77kts
26-Oct-17 21:12 47.408063 -122.171608 290 1842ft 80kts
26-Oct-17 21:13 47.415204 -122.203001 298 1749ft 80kts
26-Oct-17 21:14 47.431516 -122.224476 334 1543ft 85kts
26-Oct-17 21:15 47.451579 -122.240512 329 1368ft 84kts
26-Oct-17 21:16 47.473395 -122.255579 330 1044ft 67kts
26-Oct-17 21:17 47.488862 -122.268157 333 788ft 62kts
26-Oct-17 21:18 47.502894 -122.279767 328 615ft 62kts
26-Oct-17 21:19 47.518853 -122.293223 330 73ft 69kts
26-Oct-17 21:20 47.526207 -122.301956 146 14ft 5kts
26-Oct-17 21:21 47.526343 -122.301845 355 14ft 0kts
26-Oct-17 21:22 47.526343 -122.301845 355 14ft 0kts
26-Oct-17 21:23 47.526343 -122.301845 355 14ft 0kts
26-Oct-17 21:24 47.526343 -122.301845 355 14ft 0kts
26-Oct-17 21:25 47.526343 -122.301845 355 14ft 0kts
26-Oct-17 21:26 47.526343 -122.301845 355 14ft 0kts
26-Oct-17 21:27 47.526343 -122.301845 355 14ft 0kts
26-Oct-17 21:28 47.526343 -122.301845 355 14ft 0kts
26-Oct-17 21:29 47.526343 -122.301845 355 14ft 0kts
26-Oct-17 21:30 47.526343 -122.301845 355 14ft 0kts
26-Oct-17 21:31 34.051226 -117.602943 269 908ft 0kts
26-Oct-17 21:32 34.051226 -117.602943 269 908ft 0kts
26-Oct-17 21:33 34.051226 -117.602943 269 908ft 0kts
26-Oct-17 21:34 34.051226 -117.602943 269 908ft 0kts

Navigation Log

Ident Type
Flight plan parsing failed, navigation log unavailable